createdAt,value
2019-05-17T00:01:37.610Z,37.70
2019-05-17T00:04:07.410Z,36.13
2019-05-17T00:06:37.235Z,35.97
2019-05-17T00:09:07.646Z,35.70
2019-05-17T00:11:37.262Z,37.47
2019-05-17T00:14:06.931Z,36.80
2019-05-17T00:16:37.545Z,37.27
2019-05-17T00:19:07.640Z,37.30
2019-05-17T00:21:37.240Z,36.57
2019-05-17T00:24:07.947Z,37.00
2019-05-17T00:26:39.777Z,37.10
2019-05-17T00:29:09.531Z,40.47
2019-05-17T00:31:39.068Z,40.27
2019-05-17T00:34:08.690Z,32.53
2019-05-17T00:36:38.186Z,35.30
2019-05-17T00:39:07.798Z,37.10
2019-05-17T00:41:40.259Z,35.93
2019-05-17T00:44:09.751Z,38.60
2019-05-17T00:46:39.319Z,34.60
2019-05-17T00:49:08.819Z,36.90
2019-05-17T00:51:39.232Z,37.43
2019-05-17T00:54:08.736Z,35.77
2019-05-17T00:56:38.370Z,36.53
2019-05-17T00:59:07.837Z,37.40
2019-05-17T01:01:37.209Z,34.70
2019-05-17T01:04:06.965Z,33.80
2019-05-17T01:06:37.586Z,36.60
2019-05-17T01:09:08.514Z,31.80
2019-05-17T01:11:37.812Z,37.20
2019-05-17T01:14:08.804Z,36.13
2019-05-17T01:16:38.239Z,33.77
2019-05-17T01:19:07.632Z,35.80
2019-05-17T01:21:37.086Z,35.93
2019-05-17T01:24:06.935Z,34.90
2019-05-17T01:26:37.391Z,33.53
2019-05-17T01:29:07.131Z,34.80
2019-05-17T01:31:37.309Z,35.33
2019-05-17T01:34:07.537Z,33.57
2019-05-17T01:36:37.658Z,32.17
2019-05-17T01:39:17.062Z,35.97
2019-05-17T01:41:38.640Z,32.70
2019-05-17T01:44:08.142Z,32.67
2019-05-17T01:46:37.654Z,33.87
2019-05-17T01:49:07.038Z,37.33
2019-05-17T01:51:37.582Z,35.90
2019-05-17T01:54:07.075Z,34.67
2019-05-17T01:56:36.935Z,37.20
2019-05-17T01:59:06.986Z,37.70
2019-05-17T02:01:37.269Z,32.70
2019-05-17T02:04:06.803Z,36.30
2019-05-17T02:06:36.778Z,35.10
2019-05-17T02:09:07.553Z,39.63
2019-05-17T02:11:37.703Z,35.43
2019-05-17T02:14:07.161Z,34.87
2019-05-17T02:16:37.637Z,36.93
2019-05-17T02:19:07.400Z,32.83
2019-05-17T02:21:39.123Z,32.27
2019-05-17T02:24:08.132Z,34.20
2019-05-17T02:26:37.601Z,36.43
2019-05-17T02:29:07.101Z,33.17
2019-05-17T02:31:36.564Z,31.50
2019-05-17T02:34:06.076Z,34.33
2019-05-17T02:36:35.419Z,34.80
2019-05-17T02:39:05.977Z,36.20
2019-05-17T02:41:35.518Z,32.27
2019-05-17T02:44:05.191Z,36.90
2019-05-17T02:46:34.682Z,37.47
2019-05-17T02:49:04.104Z,37.97
2019-05-17T02:51:33.543Z,37.27
2019-05-17T02:54:04.248Z,36.53
2019-05-17T02:56:33.806Z,36.37
2019-05-17T02:59:03.837Z,35.13
2019-05-17T03:01:33.667Z,30.50
2019-05-17T03:04:03.968Z,36.73
2019-05-17T03:06:33.624Z,36.13
2019-05-17T03:09:03.651Z,35.10
2019-05-17T03:11:33.558Z,30.80
2019-05-17T03:14:04.033Z,30.93
2019-05-17T03:16:34.057Z,30.73
2019-05-17T03:19:04.378Z,29.97
2019-05-17T03:21:34.145Z,29.77
2019-05-17T03:24:03.841Z,30.43
2019-05-17T03:26:33.252Z,30.80
2019-05-17T03:29:03.503Z,24.30
2019-05-17T03:31:40.551Z,26.30
2019-05-17T03:34:06.765Z,28.53
2019-05-17T03:36:36.887Z,26.40
2019-05-17T03:39:07.369Z,26.07
2019-05-17T03:41:36.902Z,25.37
2019-05-17T03:44:06.410Z,26.30
2019-05-17T03:46:35.961Z,28.97
2019-05-17T03:49:05.424Z,25.67
2019-05-17T03:51:34.822Z,26.30
2019-05-17T03:54:04.310Z,25.97
2019-05-17T03:56:33.648Z,30.23
2019-05-17T03:59:03.898Z,26.00
2019-05-17T04:01:34.181Z,27.30
2019-05-17T04:04:03.677Z,29.80
2019-05-17T04:06:33.249Z,28.80
2019-05-17T04:09:03.873Z,31.17
2019-05-17T04:11:36.496Z,29.93
2019-05-17T04:14:04.929Z,36.60
2019-05-17T04:16:34.371Z,35.17
2019-05-17T04:19:03.843Z,33.97
2019-05-17T04:21:34.400Z,39.53
2019-05-17T04:24:04.029Z,34.77
2019-05-17T04:26:33.508Z,34.73
2019-05-17T04:29:03.697Z,35.63
2019-05-17T04:31:34.755Z,31.90
2019-05-17T04:34:04.754Z,33.17
2019-05-17T04:36:34.151Z,31.80
2019-05-17T04:39:04.810Z,34.53
2019-05-17T04:41:45.026Z,36.53
2019-05-17T04:44:05.344Z,32.50
2019-05-17T04:46:34.740Z,32.80
2019-05-17T04:49:04.219Z,35.17
2019-05-17T04:51:33.746Z,37.90
2019-05-17T04:54:03.620Z,34.77
2019-05-17T04:56:33.620Z,32.43
2019-05-17T04:59:03.744Z,35.10
2019-05-17T05:01:33.730Z,35.30
2019-05-17T05:04:03.941Z,32.67
2019-05-17T05:06:33.457Z,32.67
2019-05-17T05:09:03.467Z,32.50
2019-05-17T05:11:33.103Z,33.10
2019-05-17T05:14:03.068Z,31.47
2019-05-17T05:16:32.736Z,31.27
2019-05-17T05:19:03.003Z,30.50
2019-05-17T05:21:32.674Z,28.83
2019-05-17T05:24:02.597Z,27.57
2019-05-17T05:26:32.432Z,27.20
2019-05-17T05:29:02.346Z,28.17
2019-05-17T05:31:32.239Z,25.20
2019-05-17T05:34:02.061Z,26.03
2019-05-17T05:36:32.815Z,24.70
2019-05-17T05:39:02.584Z,24.87
2019-05-17T05:41:32.199Z,24.60
2019-05-17T05:44:02.059Z,21.77
2019-05-17T05:46:31.897Z,26.10
2019-05-17T05:49:02.005Z,24.40
2019-05-17T05:51:32.087Z,24.90
2019-05-17T05:54:01.886Z,27.47
2019-05-17T05:56:32.595Z,24.23
2019-05-17T05:59:02.894Z,22.00
2019-05-17T06:01:32.807Z,22.73
2019-05-17T06:04:02.852Z,22.40
2019-05-17T06:06:33.285Z,22.80
2019-05-17T06:09:04.528Z,22.43
2019-05-17T06:11:33.924Z,20.53
2019-05-17T06:14:04.008Z,18.53
2019-05-17T06:16:33.404Z,16.90
2019-05-17T06:19:02.909Z,17.50
2019-05-17T06:21:32.313Z,17.00
2019-05-17T06:24:02.651Z,14.87
2019-05-17T06:26:32.205Z,13.67
2019-05-17T06:29:02.752Z,13.20
2019-05-17T06:31:33.334Z,14.63
2019-05-17T06:34:04.691Z,13.27
2019-05-17T06:36:35.091Z,13.67
2019-05-17T06:39:06.490Z,12.17
2019-05-17T06:41:35.913Z,12.77
2019-05-17T06:44:05.340Z,11.87
2019-05-17T06:46:34.724Z,10.50
2019-05-17T06:49:04.492Z,10.30
2019-05-17T06:51:34.025Z,12.20
2019-05-17T06:54:03.552Z,10.43
2019-05-17T06:56:32.978Z,11.27
2019-05-17T06:59:02.545Z,11.70
2019-05-17T07:01:31.922Z,11.30
2019-05-17T07:04:01.445Z,9.37
2019-05-17T07:06:32.565Z,9.00
2019-05-17T07:09:02.022Z,10.63
2019-05-17T07:11:31.514Z,9.20
2019-05-17T07:14:01.026Z,10.80
2019-05-17T07:16:30.559Z,11.90
2019-05-17T07:19:00.168Z,11.07
2019-05-17T07:21:29.839Z,11.27
2019-05-17T07:23:59.510Z,11.97
2019-05-17T07:26:30.211Z,9.33
2019-05-17T07:28:59.811Z,10.13
2019-05-17T07:31:30.183Z,10.17
2019-05-17T07:33:59.957Z,10.83
2019-05-17T07:36:30.649Z,11.90
2019-05-17T07:39:00.886Z,10.23
2019-05-17T07:41:30.442Z,10.90
2019-05-17T07:44:00.389Z,10.90
2019-05-17T07:46:30.114Z,9.27
2019-05-17T07:49:00.413Z,11.50
2019-05-17T07:51:30.224Z,10.60
2019-05-17T07:53:59.889Z,10.07
2019-05-17T07:56:30.554Z,10.67
2019-05-17T07:59:00.211Z,10.63
2019-05-17T08:01:29.849Z,8.60
2019-05-17T08:04:00.666Z,9.33
2019-05-17T08:06:30.733Z,9.70
2019-05-17T08:09:04.062Z,11.17
2019-05-17T08:11:31.702Z,8.40
2019-05-17T08:14:01.257Z,8.37
2019-05-17T08:16:30.638Z,8.87
2019-05-17T08:19:00.471Z,6.60
2019-05-17T08:21:30.597Z,6.93
2019-05-17T08:24:00.333Z,7.77
2019-05-17T08:26:29.895Z,7.50
2019-05-17T08:29:00.739Z,8.23
2019-05-17T08:31:30.595Z,9.07
2019-05-17T08:34:00.205Z,7.60
2019-05-17T08:36:29.945Z,9.23
2019-05-17T08:38:59.876Z,8.13
2019-05-17T08:41:31.702Z,7.93
2019-05-17T08:44:01.968Z,8.83
2019-05-17T08:46:31.347Z,10.43
2019-05-17T08:49:00.773Z,7.73
2019-05-17T08:51:30.628Z,9.67
2019-05-17T08:54:00.281Z,10.00
2019-05-17T08:56:30.956Z,11.27
2019-05-17T08:59:00.914Z,11.20
2019-05-17T09:01:30.521Z,10.07
2019-05-17T09:04:00.066Z,11.73
2019-05-17T09:06:29.682Z,11.17
2019-05-17T09:09:00.775Z,12.07
2019-05-17T09:11:30.403Z,11.43
2019-05-17T09:14:02.022Z,10.47
2019-05-17T09:16:31.076Z,11.10
2019-05-17T09:19:00.731Z,11.90
2019-05-17T09:21:31.402Z,12.40
2019-05-17T09:24:01.103Z,11.10
2019-05-17T09:26:30.511Z,11.97
2019-05-17T09:29:01.347Z,11.23
2019-05-17T09:31:31.138Z,10.80
2019-05-17T09:34:00.492Z,12.03
2019-05-17T09:36:30.444Z,12.50
2019-05-17T09:39:00.245Z,12.83
2019-05-17T09:41:29.779Z,13.20
2019-05-17T09:44:11.643Z,11.53
2019-05-17T09:46:30.458Z,11.23
2019-05-17T09:49:01.138Z,13.97
2019-05-17T09:51:30.958Z,11.13
2019-05-17T09:54:00.419Z,14.73
2019-05-17T09:56:30.246Z,13.37
2019-05-17T09:59:00.461Z,13.70
2019-05-17T10:01:30.505Z,13.87
2019-05-17T10:04:00.052Z,11.47
2019-05-17T10:06:29.490Z,12.40
2019-05-17T10:09:00.208Z,13.17
2019-05-17T10:11:30.759Z,14.07
2019-05-17T10:14:01.321Z,12.87
2019-05-17T10:16:30.971Z,11.43
2019-05-17T10:19:00.419Z,13.93
2019-05-17T10:21:30.440Z,13.90
2019-05-17T10:24:00.253Z,14.77
2019-05-17T10:26:30.459Z,14.40
2019-05-17T10:28:59.978Z,14.33
2019-05-17T10:31:30.420Z,12.80
2019-05-17T10:34:01.053Z,12.27
2019-05-17T10:36:30.578Z,19.87
2019-05-17T10:38:59.955Z,14.17
2019-05-17T10:41:30.134Z,14.20
2019-05-17T10:43:59.719Z,14.00
2019-05-17T10:46:29.978Z,13.90
2019-05-17T10:48:59.739Z,13.33
2019-05-17T10:51:29.653Z,13.37
2019-05-17T10:53:59.976Z,12.10
2019-05-17T10:56:29.525Z,14.40
2019-05-17T10:59:00.102Z,11.80
2019-05-17T11:01:30.587Z,12.70
2019-05-17T11:04:00.284Z,15.37
2019-05-17T11:06:30.174Z,12.80
2019-05-17T11:08:59.767Z,13.87
2019-05-17T11:11:29.359Z,13.00
2019-05-17T11:13:58.722Z,14.30
2019-05-17T11:16:28.294Z,16.00
2019-05-17T11:18:57.693Z,14.00
2019-05-17T11:21:27.175Z,13.30
2019-05-17T11:23:56.714Z,13.37
2019-05-17T11:26:26.119Z,14.27
2019-05-17T11:28:55.499Z,14.23
2019-05-17T11:31:25.138Z,14.13
2019-05-17T11:33:54.545Z,13.33
2019-05-17T11:36:24.141Z,13.77
2019-05-17T11:38:53.722Z,14.30
2019-05-17T11:41:23.302Z,14.97
2019-05-17T11:43:52.785Z,14.67
2019-05-17T11:46:35.272Z,14.63
2019-05-17T11:48:53.363Z,14.53
2019-05-17T11:51:22.946Z,16.13
2019-05-17T11:53:52.388Z,16.60
2019-05-17T11:56:21.752Z,16.20
2019-05-17T11:58:51.234Z,15.13
2019-05-17T12:01:21.822Z,15.00
2019-05-17T12:03:51.319Z,16.80
2019-05-17T12:06:20.899Z,13.57
2019-05-17T12:08:50.330Z,16.10
2019-05-17T12:11:19.916Z,17.47
2019-05-17T12:13:49.348Z,14.50
2019-05-17T12:16:18.778Z,19.07
2019-05-17T12:18:48.275Z,15.87
2019-05-17T12:21:17.833Z,14.93
2019-05-17T12:23:47.418Z,15.33
2019-05-17T12:26:16.978Z,17.23
2019-05-17T12:28:46.471Z,13.47
2019-05-17T12:31:15.985Z,16.37
2019-05-17T12:33:45.399Z,17.30
2019-05-17T12:36:14.802Z,14.90
2019-05-17T12:38:44.317Z,15.00
2019-05-17T12:41:13.893Z,12.40
2019-05-17T12:43:43.337Z,14.03
2019-05-17T12:46:12.698Z,13.63
2019-05-17T12:48:42.098Z,14.20
2019-05-17T12:51:11.572Z,11.73
2019-05-17T12:53:40.982Z,12.40
2019-05-17T12:56:10.516Z,14.17
2019-05-17T12:58:40.013Z,13.30
2019-05-17T13:01:10.539Z,14.13
2019-05-17T13:03:39.986Z,12.53
2019-05-17T13:06:09.424Z,10.50
2019-05-17T13:08:38.807Z,12.27
2019-05-17T13:11:09.321Z,11.10
2019-05-17T13:13:38.693Z,11.13
2019-05-17T13:16:17.341Z,11.17
2019-05-17T13:18:39.436Z,12.70
2019-05-17T13:21:09.187Z,12.43
2019-05-17T13:23:38.623Z,14.50
2019-05-17T13:26:08.117Z,15.97
2019-05-17T13:28:37.521Z,13.90
2019-05-17T13:31:06.992Z,11.93
2019-05-17T13:33:36.472Z,13.00
2019-05-17T13:36:05.964Z,11.73
2019-05-17T13:38:35.718Z,11.73
2019-05-17T13:41:05.179Z,11.40
2019-05-17T13:43:34.595Z,10.57
2019-05-17T13:46:04.001Z,10.87
2019-05-17T13:48:33.478Z,13.87
2019-05-17T13:51:02.983Z,11.53
2019-05-17T13:53:32.299Z,11.17
2019-05-17T13:56:01.853Z,12.30
2019-05-17T13:58:31.248Z,10.30
2019-05-17T14:01:00.674Z,11.10
2019-05-17T14:03:30.281Z,11.30
2019-05-17T14:05:59.770Z,10.80
2019-05-17T14:08:29.316Z,15.73
2019-05-17T14:10:58.721Z,10.47
2019-05-17T14:13:28.244Z,10.53
2019-05-17T14:15:57.660Z,9.57
2019-05-17T14:18:27.159Z,9.80
2019-05-17T14:20:56.600Z,9.23
2019-05-17T14:23:26.065Z,11.40
2019-05-17T14:25:55.467Z,9.57
2019-05-17T14:28:24.861Z,8.63
2019-05-17T14:30:54.399Z,9.57
2019-05-17T14:33:23.970Z,9.43
2019-05-17T14:35:53.513Z,10.03
2019-05-17T14:38:22.897Z,8.27
2019-05-17T14:41:08.877Z,9.90
2019-05-17T14:43:23.854Z,8.90
2019-05-17T14:45:53.335Z,8.97
2019-05-17T14:48:22.732Z,8.20
2019-05-17T14:50:52.128Z,9.67
2019-05-17T14:53:21.657Z,9.70
2019-05-17T14:55:51.069Z,10.30
2019-05-17T14:58:20.658Z,8.03
2019-05-17T15:00:50.137Z,9.10
2019-05-17T15:03:19.713Z,10.47
2019-05-17T15:05:49.274Z,8.80
2019-05-17T15:08:18.798Z,10.60
2019-05-17T15:10:48.229Z,9.83
2019-05-17T15:13:17.669Z,10.43
2019-05-17T15:15:47.166Z,9.67
2019-05-17T15:18:16.648Z,8.97
2019-05-17T15:20:46.042Z,8.97
2019-05-17T15:23:15.474Z,9.57
2019-05-17T15:25:44.885Z,9.97
2019-05-17T15:28:14.297Z,9.00
2019-05-17T15:30:43.774Z,10.47
2019-05-17T15:33:15.424Z,10.30
2019-05-17T15:35:44.926Z,8.53
2019-05-17T15:38:14.312Z,11.17
2019-05-17T15:40:43.708Z,10.17
2019-05-17T15:43:13.317Z,11.60
2019-05-17T15:45:42.668Z,13.37
2019-05-17T15:48:12.310Z,12.90
2019-05-17T15:50:41.680Z,13.07
2019-05-17T15:53:11.300Z,10.80
2019-05-17T15:55:40.739Z,12.67
2019-05-17T15:58:10.224Z,11.87
2019-05-17T16:00:39.692Z,12.93
2019-05-17T16:03:09.291Z,13.60
2019-05-17T16:05:38.719Z,13.77
2019-05-17T16:08:08.231Z,13.40
2019-05-17T16:10:40.630Z,11.30
2019-05-17T16:13:10.044Z,13.30
2019-05-17T16:15:39.491Z,15.20
2019-05-17T16:18:08.919Z,16.43
2019-05-17T16:20:38.450Z,17.00
2019-05-17T16:23:07.988Z,13.80
2019-05-17T16:25:37.699Z,16.03
2019-05-17T16:28:07.374Z,15.63
2019-05-17T16:30:36.854Z,17.57
2019-05-17T16:33:06.392Z,16.93
2019-05-17T16:35:35.863Z,16.37
2019-05-17T16:38:05.249Z,17.37
2019-05-17T16:40:34.765Z,16.40
2019-05-17T16:43:17.054Z,16.23
2019-05-17T16:45:35.272Z,15.93
2019-05-17T16:48:04.707Z,14.50
2019-05-17T16:50:34.186Z,16.30
2019-05-17T16:53:06.219Z,17.10
2019-05-17T16:55:34.911Z,17.63
2019-05-17T16:58:04.362Z,18.60
2019-05-17T17:00:35.866Z,17.83
2019-05-17T17:03:05.792Z,15.63
2019-05-17T17:05:35.354Z,17.03
2019-05-17T17:08:05.250Z,17.47
2019-05-17T17:10:34.863Z,17.87
2019-05-17T17:13:04.482Z,18.37
2019-05-17T17:15:33.860Z,16.20
2019-05-17T17:18:03.293Z,17.00
2019-05-17T17:20:32.752Z,17.13
2019-05-17T17:23:02.114Z,16.80
2019-05-17T17:25:31.476Z,17.17
2019-05-17T17:28:01.029Z,16.80
2019-05-17T17:30:30.485Z,19.73
2019-05-17T17:32:59.990Z,17.57
2019-05-17T17:35:29.459Z,17.83
2019-05-17T17:37:58.946Z,18.73
2019-05-17T17:40:28.612Z,18.60
2019-05-17T17:42:58.077Z,17.23
2019-05-17T17:45:27.711Z,18.27
2019-05-17T17:47:57.303Z,17.37
2019-05-17T17:50:26.769Z,17.00
2019-05-17T17:52:56.179Z,17.43
2019-05-17T17:55:25.606Z,17.70
2019-05-17T17:57:55.206Z,19.00
2019-05-17T18:00:24.910Z,18.77
2019-05-17T18:02:54.272Z,18.47
2019-05-17T18:05:25.217Z,18.30
2019-05-17T18:07:54.958Z,18.00
2019-05-17T18:10:27.405Z,18.17
2019-05-17T18:12:56.994Z,20.23
2019-05-17T18:15:35.153Z,18.97
2019-05-17T18:18:04.823Z,19.93
2019-05-17T18:20:34.209Z,16.70
2019-05-17T18:23:03.593Z,16.30
2019-05-17T18:25:33.070Z,19.00
2019-05-17T18:28:02.500Z,17.60
2019-05-17T18:30:32.228Z,19.27
2019-05-17T18:33:01.586Z,17.17
2019-05-17T18:35:31.033Z,16.13
2019-05-17T18:38:00.387Z,18.07
2019-05-17T18:40:29.754Z,16.97
2019-05-17T18:42:59.235Z,17.70
2019-05-17T18:45:31.254Z,17.10
2019-05-17T18:48:00.888Z,16.23
2019-05-17T18:50:30.266Z,16.97
2019-05-17T18:52:59.960Z,18.63
2019-05-17T18:55:29.473Z,18.70
2019-05-17T18:57:58.891Z,17.77
2019-05-17T19:00:28.592Z,20.67
2019-05-17T19:02:58.097Z,19.50
2019-05-17T19:05:27.560Z,18.17
2019-05-17T19:07:57.023Z,19.13
2019-05-17T19:10:26.630Z,19.17
2019-05-17T19:12:56.056Z,20.30
2019-05-17T19:15:25.567Z,19.90
2019-05-17T19:17:55.050Z,18.67
2019-05-17T19:20:24.606Z,18.60
2019-05-17T19:22:54.182Z,17.33
2019-05-17T19:25:23.603Z,21.30
2019-05-17T19:27:53.132Z,18.17
2019-05-17T19:30:22.602Z,21.30
2019-05-17T19:32:51.929Z,20.80
2019-05-17T19:35:21.553Z,19.87
2019-05-17T19:37:50.859Z,20.37
2019-05-17T19:40:20.533Z,21.03
2019-05-17T19:42:50.042Z,18.40
2019-05-17T19:45:19.806Z,20.03
2019-05-17T19:47:49.430Z,19.60
2019-05-17T19:50:19.147Z,20.03
2019-05-17T19:52:48.703Z,18.57
2019-05-17T19:55:18.364Z,20.40
2019-05-17T19:57:47.883Z,19.93
2019-05-17T20:00:18.028Z,20.20
2019-05-17T20:02:47.382Z,19.30
2019-05-17T20:05:16.948Z,16.37
2019-05-17T20:07:46.456Z,17.27
2019-05-17T20:10:16.068Z,17.40
2019-05-17T20:12:45.492Z,17.70
2019-05-17T20:15:18.308Z,18.67
2019-05-17T20:17:47.800Z,19.87
2019-05-17T20:20:18.200Z,20.30
2019-05-17T20:22:47.641Z,17.83
2019-05-17T20:25:17.246Z,21.00
2019-05-17T20:27:46.731Z,18.60
2019-05-17T20:30:16.607Z,19.73
2019-05-17T20:32:46.116Z,19.40
2019-05-17T20:35:18.085Z,19.37
2019-05-17T20:37:47.389Z,23.00
2019-05-17T20:40:18.025Z,22.73
2019-05-17T20:42:47.461Z,23.10
2019-05-17T20:45:30.629Z,21.27
2019-05-17T20:47:48.176Z,24.23
2019-05-17T20:50:17.708Z,22.33
2019-05-17T20:52:47.267Z,22.10
2019-05-17T20:55:17.002Z,23.50
2019-05-17T20:57:46.561Z,22.90
2019-05-17T21:00:17.462Z,20.57
2019-05-17T21:02:47.088Z,21.73
2019-05-17T21:05:18.424Z,21.47
2019-05-17T21:07:47.832Z,18.53
2019-05-17T21:10:17.453Z,24.00
2019-05-17T21:12:47.006Z,21.23
2019-05-17T21:15:16.410Z,19.00
2019-05-17T21:17:45.902Z,19.03
2019-05-17T21:20:15.885Z,20.40
2019-05-17T21:22:45.281Z,19.07
2019-05-17T21:25:14.873Z,20.00
2019-05-17T21:27:44.331Z,20.17
2019-05-17T21:30:13.732Z,19.20
2019-05-17T21:32:43.206Z,20.27
2019-05-17T21:35:12.928Z,19.00
2019-05-17T21:37:42.461Z,20.90
2019-05-17T21:40:12.167Z,18.80
2019-05-17T21:42:41.745Z,20.93
2019-05-17T21:45:11.672Z,20.90
2019-05-17T21:47:41.172Z,22.37
2019-05-17T21:50:10.725Z,21.00
2019-05-17T21:52:40.319Z,22.07
2019-05-17T21:55:09.786Z,23.40
2019-05-17T21:57:39.307Z,22.73
2019-05-17T22:00:11.510Z,24.20
2019-05-17T22:02:41.131Z,25.43
2019-05-17T22:05:10.557Z,24.20
2019-05-17T22:07:40.122Z,24.40
2019-05-17T22:10:09.774Z,24.10
2019-05-17T22:12:39.152Z,22.83
2019-05-17T22:15:08.625Z,22.77
2019-05-17T22:17:37.919Z,28.50
2019-05-17T22:20:07.266Z,23.07
2019-05-17T22:22:36.672Z,25.33
2019-05-17T22:25:06.341Z,21.57
2019-05-17T22:27:35.697Z,24.93
2019-05-17T22:30:05.710Z,23.37
2019-05-17T22:32:35.128Z,26.37
2019-05-17T22:35:04.884Z,25.03
2019-05-17T22:37:34.202Z,26.63
2019-05-17T22:40:03.738Z,28.83
2019-05-17T22:42:33.154Z,28.30
2019-05-17T22:45:02.702Z,29.60
2019-05-17T22:47:31.991Z,29.27
2019-05-17T22:50:01.345Z,28.00
2019-05-17T22:52:30.791Z,29.40
2019-05-17T22:55:00.307Z,30.90
2019-05-17T22:57:30.233Z,27.70
2019-05-17T22:59:59.852Z,26.97
2019-05-17T23:02:29.204Z,28.60
2019-05-17T23:04:58.702Z,25.93
2019-05-17T23:07:28.108Z,27.40
2019-05-17T23:09:57.575Z,26.87
2019-05-17T23:12:27.023Z,26.90
2019-05-17T23:14:56.527Z,25.80
2019-05-17T23:17:26.052Z,28.00
2019-05-17T23:19:55.646Z,27.93
2019-05-17T23:22:25.045Z,26.00
2019-05-17T23:24:54.420Z,28.57
2019-05-17T23:27:23.907Z,26.70
2019-05-17T23:29:53.282Z,28.13
2019-05-17T23:32:23.552Z,27.23
2019-05-17T23:34:52.894Z,27.53
2019-05-17T23:37:22.548Z,27.03
2019-05-17T23:39:51.973Z,27.70
2019-05-17T23:42:21.404Z,27.97
2019-05-17T23:44:50.954Z,30.20
2019-05-17T23:47:20.452Z,29.77
2019-05-17T23:49:49.942Z,30.13
2019-05-17T23:52:19.473Z,30.63
2019-05-17T23:54:48.823Z,31.00
2019-05-17T23:57:18.187Z,29.17
2019-05-17T23:59:47.547Z,31.23
